Time;durP1;ratioP1;P1;durP2;ratioP2;P2;SDS_P1;SDS_P2;PMS_P1;PMS_P2;Temp;Humidity;BMP_temperature;BMP_pressure;BME280_temperature;BME280_humidity;BME280_pressure;Samples;Min_cycle;Max_cycle;Signal;HPM_P1;HPM_P2
2022/02/17 00:02:21;;;;;;;819.17;524.45;;;;;;;;;;4942471;28;20035;-73
2022/02/17 00:04:47;;;;;;;817.22;527.72;;;;;;;;;;4949710;28;20070;-72
2022/02/17 00:07:13;;;;;;;814.47;524.83;;;;;;;;;;4947886;28;20027;-72
2022/02/17 00:09:39;;;;;;;811.58;515.38;;;;;;;;;;4948058;28;20046;-72
2022/02/17 00:12:06;;;;;;;812.90;520.40;;;;;;;;;;4946608;28;20039;-72
2022/02/17 00:14:32;;;;;;;812.45;512.75;;;;;;;;;;4946707;28;20085;-73
2022/02/17 00:16:58;;;;;;;812.92;506.25;;;;;;;;;;4945643;29;22924;-73
2022/02/17 00:19:24;;;;;;;803.42;482.40;;;;;;;;;;4947615;28;20054;-72
2022/02/17 00:21:50;;;;;;;806.88;496.67;;;;;;;;;;4947746;28;20133;-73
2022/02/17 00:24:17;;;;;;;803.67;492.27;;;;;;;;;;4946125;28;20039;-72
2022/02/17 00:26:43;;;;;;;806.85;501.15;;;;;;;;;;4949973;28;20085;-72
2022/02/17 00:29:09;;;;;;;807.15;497.83;;;;;;;;;;4945700;28;20039;-72
2022/02/17 00:31:35;;;;;;;810.63;506.00;;;;;;;;;;4947612;28;20398;-72
2022/02/17 00:34:01;;;;;;;811.80;505.98;;;;;;;;;;4953041;28;20046;-73
2022/02/17 00:36:27;;;;;;;808.60;502.40;;;;;;;;;;4948239;29;20093;-72
2022/02/17 00:38:53;;;;;;;816.00;520.53;;;;;;;;;;4946370;28;20023;-73
2022/02/17 00:41:20;;;;;;;813.05;517.70;;;;;;;;;;4947518;29;20063;-72
2022/02/17 00:43:47;;;;;;;817.13;517.85;;;;;;;;;;4948175;28;20630;-72
2022/02/17 00:46:13;;;;;;;815.47;521.60;;;;;;;;;;4946164;28;20443;-73
2022/02/17 00:48:39;;;;;;;810.97;508.00;;;;;;;;;;4945822;28;20114;-72
2022/02/17 00:51:05;;;;;;;814.25;517.35;;;;;;;;;;4948086;28;20031;-72
2022/02/17 00:53:31;;;;;;;813.65;519.75;;;;;;;;;;4945887;29;20034;-72
2022/02/17 00:55:57;;;;;;;817.47;527.15;;;;;;;;;;4942151;28;20046;-72
2022/02/17 00:58:23;;;;;;;850.92;519.83;;;;;;;;;;4941214;28;20028;-72
2022/02/17 01:00:49;;;;;;;812.85;514.92;;;;;;;;;;4945951;29;20032;-72
2022/02/17 01:03:15;;;;;;;815.35;526.25;;;;;;;;;;4949659;28;20114;-72
2022/02/17 01:05:41;;;;;;;816.35;521.55;;;;;;;;;;4947408;29;20035;-72
2022/02/17 01:08:07;;;;;;;826.05;534.53;;;;;;;;;;4944194;28;20526;-72
2022/02/17 01:10:33;;;;;;;811.17;510.00;;;;;;;;;;4947514;28;20115;-72
2022/02/17 01:13:00;;;;;;;814.42;519.90;;;;;;;;;;4966699;28;20031;-72
2022/02/17 01:15:26;;;;;;;813.33;519.33;;;;;;;;;;4962523;28;20034;-72
2022/02/17 01:17:52;;;;;;;817.10;534.45;;;;;;;;;;4956881;28;20627;-73
2022/02/17 01:20:18;;;;;;;814.17;517.47;;;;;;;;;;4947299;28;20023;-72
2022/02/17 01:22:45;;;;;;;816.95;517.33;;;;;;;;;;4950340;28;20045;-73
2022/02/17 01:25:12;;;;;;;817.03;514.35;;;;;;;;;;4946069;28;20118;-72
2022/02/17 01:27:38;;;;;;;815.53;513.33;;;;;;;;;;4946046;29;20031;-72
2022/02/17 01:30:05;;;;;;;817.85;517.03;;;;;;;;;;4946948;28;20390;-72
2022/02/17 01:32:31;;;;;;;821.10;515.45;;;;;;;;;;4955192;28;20164;-72
2022/02/17 01:34:58;;;;;;;817.22;505.90;;;;;;;;;;4943715;28;20023;-72
2022/02/17 01:37:24;;;;;;;842.55;511.88;;;;;;;;;;4945511;28;20055;-72
2022/02/17 01:39:50;;;;;;;817.60;505.48;;;;;;;;;;4945821;29;20475;-72
2022/02/17 01:42:16;;;;;;;818.85;512.20;;;;;;;;;;4945574;29;20448;-72
2022/02/17 01:44:42;;;;;;;819.63;507.00;;;;;;;;;;4946925;28;20114;-72
2022/02/17 01:47:12;;;;;;;819.00;508.63;;;;;;;;;;4948630;28;20081;-72
2022/02/17 01:49:39;;;;;;;817.22;500.00;;;;;;;;;;4946988;28;20039;-72
2022/02/17 01:52:05;;;;;;;818.97;503.48;;;;;;;;;;4945938;29;20077;-72
2022/02/17 01:54:31;;;;;;;819.92;510.92;;;;;;;;;;4943135;29;20019;-72
2022/02/17 01:56:59;;;;;;;823.33;510.10;;;;;;;;;;4947505;28;20038;-72
2022/02/17 01:59:25;;;;;;;826.65;498.92;;;;;;;;;;4947794;28;20102;-72
2022/02/17 02:01:51;;;;;;;821.50;508.13;;;;;;;;;;4962293;28;20039;-72
2022/02/17 02:04:17;;;;;;;822.40;507.35;;;;;;;;;;4947333;28;20024;-72
2022/02/17 02:06:43;;;;;;;821.15;504.77;;;;;;;;;;4946536;28;20036;-72
2022/02/17 02:09:11;;;;;;;819.38;501.75;;;;;;;;;;4941279;28;20027;-72
2022/02/17 02:11:37;;;;;;;820.45;502.77;;;;;;;;;;4950503;28;20817;-72
2022/02/17 02:14:03;;;;;;;821.05;499.75;;;;;;;;;;4946201;28;20030;-73
2022/02/17 02:16:29;;;;;;;824.72;508.77;;;;;;;;;;4956152;28;20031;-72
2022/02/17 02:18:56;;;;;;;819.08;495.45;;;;;;;;;;4945587;28;20158;-73
2022/02/17 02:21:23;;;;;;;826.88;515.40;;;;;;;;;;4946179;29;20110;-73
2022/02/17 02:23:49;;;;;;;824.60;511.20;;;;;;;;;;4944345;29;20114;-72
2022/02/17 02:26:15;;;;;;;819.10;496.27;;;;;;;;;;4945021;28;20024;-73
2022/02/17 02:28:41;;;;;;;822.58;506.73;;;;;;;;;;4946582;28;20055;-72
2022/02/17 02:31:07;;;;;;;821.75;497.17;;;;;;;;;;4961285;28;20033;-72
2022/02/17 02:33:33;;;;;;;821.90;502.48;;;;;;;;;;4941908;29;20041;-72
2022/02/17 02:36:01;;;;;;;817.70;487.30;;;;;;;;;;4948479;28;20133;-73
2022/02/17 02:38:26;;;;;;;820.35;492.98;;;;;;;;;;4949522;28;20198;-72
2022/02/17 02:40:55;;;;;;;819.20;492.75;;;;;;;;;;4951202;28;20529;-72
2022/02/17 02:43:21;;;;;;;818.13;490.10;;;;;;;;;;4949540;28;20519;-73
2022/02/17 02:45:47;;;;;;;819.53;488.63;;;;;;;;;;4949337;28;20042;-73
2022/02/17 02:48:14;;;;;;;822.05;500.50;;;;;;;;;;4948719;28;20032;-72
2022/02/17 02:50:40;;;;;;;822.13;501.75;;;;;;;;;;4945762;28;20077;-72
2022/02/17 02:53:07;;;;;;;824.78;506.20;;;;;;;;;;4942929;28;20118;-73
2022/02/17 02:55:33;;;;;;;820.35;494.58;;;;;;;;;;4950071;28;20455;-72
2022/02/17 02:57:59;;;;;;;820.80;493.65;;;;;;;;;;4950010;28;20084;-73
2022/02/17 03:00:26;;;;;;;823.50;505.85;;;;;;;;;;4949941;28;20027;-73
2022/02/17 03:02:51;;;;;;;819.47;491.33;;;;;;;;;;4947520;29;20134;-72
2022/02/17 03:05:17;;;;;;;819.58;492.33;;;;;;;;;;4951105;28;20549;-73
2022/02/17 03:07:43;;;;;;;824.22;499.17;;;;;;;;;;4947108;29;20542;-73
2022/02/17 03:10:10;;;;;;;822.40;503.27;;;;;;;;;;4948740;28;20568;-72
2022/02/17 03:12:36;;;;;;;821.25;502.45;;;;;;;;;;4950816;28;20035;-72
2022/02/17 03:15:03;;;;;;;824.00;504.55;;;;;;;;;;4949949;28;20043;-72
2022/02/17 03:17:29;;;;;;;825.75;507.65;;;;;;;;;;4949754;28;20102;-72
2022/02/17 03:19:55;;;;;;;827.10;504.85;;;;;;;;;;4948304;28;20115;-72
2022/02/17 03:22:22;;;;;;;826.40;506.15;;;;;;;;;;4944654;28;20631;-73
2022/02/17 03:24:49;;;;;;;829.65;513.95;;;;;;;;;;4947779;28;20039;-72
2022/02/17 03:27:15;;;;;;;827.40;501.77;;;;;;;;;;4950405;28;20118;-72
2022/02/17 03:29:41;;;;;;;823.28;498.10;;;;;;;;;;4949027;29;20118;-72
2022/02/17 03:32:07;;;;;;;822.20;494.70;;;;;;;;;;4949132;28;20039;-73
2022/02/17 03:34:33;;;;;;;829.33;498.10;;;;;;;;;;4948693;29;20035;-72
2022/02/17 03:36:59;;;;;;;821.35;488.25;;;;;;;;;;4957687;28;20047;-72
2022/02/17 03:39:25;;;;;;;826.83;490.05;;;;;;;;;;4948817;29;20428;-73
2022/02/17 03:41:51;;;;;;;821.75;489.73;;;;;;;;;;4947283;28;20032;-72
2022/02/17 03:44:17;;;;;;;821.95;493.10;;;;;;;;;;4948174;28;20106;-72
2022/02/17 03:46:43;;;;;;;826.30;486.35;;;;;;;;;;4948894;28;20036;-73
2022/02/17 03:49:09;;;;;;;821.58;491.48;;;;;;;;;;4949274;28;20035;-73
2022/02/17 03:51:35;;;;;;;819.15;482.67;;;;;;;;;;4950173;28;20038;-73
2022/02/17 03:54:02;;;;;;;824.63;498.15;;;;;;;;;;4947533;28;20079;-73
2022/02/17 03:56:27;;;;;;;819.50;484.27;;;;;;;;;;4948059;28;20028;-73
2022/02/17 03:59:03;;;;;;;819.03;479.42;;;;;;;;;;4948717;29;20726;-74
2022/02/17 04:01:31;;;;;;;821.13;482.83;;;;;;;;;;4942915;28;20038;-74
2022/02/17 04:03:57;;;;;;;823.80;494.67;;;;;;;;;;4949227;29;20050;-74
2022/02/17 04:06:23;;;;;;;823.28;488.30;;;;;;;;;;4947936;28;20042;-73
2022/02/17 04:08:50;;;;;;;821.50;484.42;;;;;;;;;;4947067;29;20036;-74
2022/02/17 04:11:16;;;;;;;824.17;489.88;;;;;;;;;;4946709;29;20043;-74
2022/02/17 04:13:42;;;;;;;823.17;491.55;;;;;;;;;;4941688;29;20055;-74
2022/02/17 04:16:08;;;;;;;819.90;481.00;;;;;;;;;;4970757;28;20380;-73
2022/02/17 04:18:34;;;;;;;822.30;486.80;;;;;;;;;;4947767;29;20113;-73
2022/02/17 04:21:00;;;;;;;851.90;493.73;;;;;;;;;;4948225;29;20126;-73
2022/02/17 04:23:26;;;;;;;824.30;496.02;;;;;;;;;;4945835;29;20031;-73
2022/02/17 04:25:52;;;;;;;821.25;480.25;;;;;;;;;;4944681;28;20047;-74
2022/02/17 04:28:18;;;;;;;821.97;487.25;;;;;;;;;;4948904;28;20027;-74
2022/02/17 04:30:44;;;;;;;820.40;489.80;;;;;;;;;;4942240;29;20468;-73
2022/02/17 04:33:10;;;;;;;819.63;481.70;;;;;;;;;;4948019;28;20027;-73
2022/02/17 04:35:36;;;;;;;824.70;489.63;;;;;;;;;;4940944;28;20024;-73
2022/02/17 04:38:01;;;;;;;823.58;496.67;;;;;;;;;;4946109;29;20412;-74
2022/02/17 04:43:12;;;;;;;821.30;482.95;;;;;;;;;;4946081;29;20100;-74
2022/02/17 04:45:38;;;;;;;823.85;492.60;;;;;;;;;;4948911;28;20379;-73
2022/02/17 04:48:06;;;;;;;822.63;488.35;;;;;;;;;;4948569;28;20035;-73
2022/02/17 04:50:32;;;;;;;822.97;488.30;;;;;;;;;;4948182;28;20046;-73
2022/02/17 04:52:58;;;;;;;826.15;492.52;;;;;;;;;;4946222;28;20693;-73
2022/02/17 04:55:24;;;;;;;825.53;492.92;;;;;;;;;;4959610;28;20036;-74
2022/02/17 04:57:50;;;;;;;823.92;491.10;;;;;;;;;;4949549;28;20031;-74
2022/02/17 05:00:16;;;;;;;819.55;479.40;;;;;;;;;;4944843;28;20031;-73
2022/02/17 05:02:42;;;;;;;840.45;488.38;;;;;;;;;;4945630;29;20063;-73
2022/02/17 05:05:08;;;;;;;820.58;478.65;;;;;;;;;;4947600;28;20054;-73
2022/02/17 05:07:35;;;;;;;822.00;484.63;;;;;;;;;;4947475;28;20035;-73
2022/02/17 05:10:01;;;;;;;821.20;484.40;;;;;;;;;;4949473;28;20123;-73
2022/02/17 05:12:27;;;;;;;834.72;484.00;;;;;;;;;;4962168;28;20035;-73
2022/02/17 05:14:53;;;;;;;823.05;488.33;;;;;;;;;;4943830;29;20027;-74
2022/02/17 05:17:18;;;;;;;818.88;479.40;;;;;;;;;;4947414;28;20028;-74
2022/02/17 05:19:44;;;;;;;821.15;483.83;;;;;;;;;;4947547;28;20050;-74
2022/02/17 05:22:10;;;;;;;817.60;470.13;;;;;;;;;;4948513;29;20070;-74
2022/02/17 05:24:37;;;;;;;816.50;463.33;;;;;;;;;;4961343;28;20035;-74
2022/02/17 05:27:03;;;;;;;815.80;467.77;;;;;;;;;;4949428;28;20038;-74
2022/02/17 05:29:29;;;;;;;819.78;477.27;;;;;;;;;;4947699;28;20039;-73
2022/02/17 05:32:13;;;;;;;820.47;476.25;;;;;;;;;;4947403;28;20035;-74
2022/02/17 05:34:39;;;;;;;813.78;460.48;;;;;;;;;;4947071;29;20045;-74
2022/02/17 05:37:05;;;;;;;817.53;464.90;;;;;;;;;;4947923;28;20477;-74
2022/02/17 05:39:31;;;;;;;815.50;462.85;;;;;;;;;;4946950;28;20023;-74
2022/02/17 05:41:57;;;;;;;816.97;466.23;;;;;;;;;;4948610;28;20096;-74
2022/02/17 05:44:23;;;;;;;817.38;465.40;;;;;;;;;;4948667;28;20038;-74
2022/02/17 05:46:49;;;;;;;816.90;460.65;;;;;;;;;;4947970;28;20035;-74
2022/02/17 05:49:15;;;;;;;814.65;454.20;;;;;;;;;;4947672;28;20042;-74
2022/02/17 05:51:41;;;;;;;812.28;445.02;;;;;;;;;;4946920;28;20485;-74
2022/02/17 05:54:07;;;;;;;815.13;446.63;;;;;;;;;;4946951;28;20031;-74
2022/02/17 05:56:33;;;;;;;815.97;451.70;;;;;;;;;;4946926;28;20036;-74
2022/02/17 05:58:59;;;;;;;810.85;441.15;;;;;;;;;;4941172;29;20093;-74
2022/02/17 06:01:25;;;;;;;812.25;446.60;;;;;;;;;;4947562;29;20051;-73
2022/02/17 06:03:51;;;;;;;814.53;453.88;;;;;;;;;;4945910;28;20027;-74
2022/02/17 06:06:17;;;;;;;812.83;443.85;;;;;;;;;;4951052;28;20039;-74
2022/02/17 06:08:43;;;;;;;811.45;442.23;;;;;;;;;;4949706;28;20455;-74
2022/02/17 06:11:09;;;;;;;812.83;443.70;;;;;;;;;;4950282;28;20043;-74
2022/02/17 06:13:35;;;;;;;815.70;454.88;;;;;;;;;;4951252;28;20038;-74
2022/02/17 06:16:01;;;;;;;818.53;456.92;;;;;;;;;;4951285;28;20069;-74
2022/02/17 06:18:27;;;;;;;810.38;444.95;;;;;;;;;;4968037;28;20023;-74
2022/02/17 06:20:52;;;;;;;817.00;457.95;;;;;;;;;;4944335;29;20035;-74
2022/02/17 06:23:19;;;;;;;813.08;444.02;;;;;;;;;;4947909;29;20050;-74
2022/02/17 06:25:45;;;;;;;816.58;457.00;;;;;;;;;;4942110;28;20118;-74
2022/02/17 06:28:12;;;;;;;811.38;441.05;;;;;;;;;;4950689;29;20118;-74
2022/02/17 06:30:38;;;;;;;820.08;460.98;;;;;;;;;;4950371;28;20085;-74
2022/02/17 06:33:04;;;;;;;813.95;452.33;;;;;;;;;;4948541;28;20036;-74
2022/02/17 06:35:36;;;;;;;816.78;454.33;;;;;;;;;;4949613;29;20042;-74
2022/02/17 06:38:02;;;;;;;816.20;449.33;;;;;;;;;;4942323;28;20037;-76
2022/02/17 06:40:29;;;;;;;814.67;448.65;;;;;;;;;;4948660;28;20035;-74
2022/02/17 06:42:55;;;;;;;814.65;449.00;;;;;;;;;;4949813;28;20046;-74
2022/02/17 06:45:22;;;;;;;816.17;450.42;;;;;;;;;;4954451;28;20058;-74
2022/02/17 06:47:48;;;;;;;818.75;462.13;;;;;;;;;;4947929;29;20089;-74
2022/02/17 06:50:15;;;;;;;820.55;456.20;;;;;;;;;;4950552;29;20031;-74
2022/02/17 06:52:41;;;;;;;816.58;455.08;;;;;;;;;;4949823;28;20035;-74
2022/02/17 06:55:07;;;;;;;813.65;447.83;;;;;;;;;;4946501;28;20114;-74
2022/02/17 06:57:33;;;;;;;813.65;447.05;;;;;;;;;;4950788;28;20081;-74
2022/02/17 07:00:03;;;;;;;818.20;457.02;;;;;;;;;;4948268;28;20553;-74
2022/02/17 07:02:31;;;;;;;811.93;436.00;;;;;;;;;;4948909;28;20482;-74
2022/02/17 07:04:58;;;;;;;815.45;449.27;;;;;;;;;;4950066;28;20417;-74
2022/02/17 07:07:24;;;;;;;811.78;438.60;;;;;;;;;;4948330;29;20534;-73
2022/02/17 07:09:50;;;;;;;814.88;446.52;;;;;;;;;;4946734;29;20118;-74
2022/02/17 07:12:16;;;;;;;817.53;451.95;;;;;;;;;;4949276;28;20027;-74
2022/02/17 07:14:42;;;;;;;819.65;466.25;;;;;;;;;;4947904;28;20138;-74
2022/02/17 07:17:08;;;;;;;821.75;463.10;;;;;;;;;;4941777;28;20027;-74
2022/02/17 07:19:34;;;;;;;818.17;452.70;;;;;;;;;;4964021;28;20035;-74
2022/02/17 07:22:00;;;;;;;821.13;465.33;;;;;;;;;;4948701;28;20050;-74
2022/02/17 07:24:26;;;;;;;819.53;464.83;;;;;;;;;;4945812;28;20373;-74
2022/02/17 07:26:53;;;;;;;817.58;456.08;;;;;;;;;;4945799;28;20032;-74
2022/02/17 07:29:19;;;;;;;818.35;460.60;;;;;;;;;;4946580;29;20043;-74
2022/02/17 07:31:46;;;;;;;821.75;466.05;;;;;;;;;;4946808;28;20035;-75
2022/02/17 07:34:12;;;;;;;820.75;460.52;;;;;;;;;;4945629;28;20027;-74
2022/02/17 07:36:38;;;;;;;821.80;469.00;;;;;;;;;;4945547;29;20051;-76
2022/02/17 07:39:05;;;;;;;821.42;470.55;;;;;;;;;;4949630;28;20122;-77
2022/02/17 07:41:36;;;;;;;817.15;459.70;;;;;;;;;;4949361;29;20035;-74
2022/02/17 07:44:02;;;;;;;819.35;458.80;;;;;;;;;;4951244;29;20055;-74
2022/02/17 07:46:28;;;;;;;821.88;463.55;;;;;;;;;;4951463;28;20780;-75
2022/02/17 07:48:54;;;;;;;820.88;463.75;;;;;;;;;;4952067;28;20122;-75
2022/02/17 07:51:20;;;;;;;818.85;456.60;;;;;;;;;;4950669;28;20039;-75
2022/02/17 07:53:46;;;;;;;818.63;462.10;;;;;;;;;;4949569;28;20039;-75
2022/02/17 07:56:12;;;;;;;820.60;464.20;;;;;;;;;;4947477;29;20070;-75
2022/02/17 07:58:39;;;;;;;822.15;467.25;;;;;;;;;;4950407;28;22931;-75
2022/02/17 08:01:07;;;;;;;819.45;463.42;;;;;;;;;;4952274;28;20612;-75
2022/02/17 08:03:33;;;;;;;820.10;459.20;;;;;;;;;;4950384;28;20042;-75
2022/02/17 08:05:59;;;;;;;822.28;469.02;;;;;;;;;;4948708;28;20024;-74
2022/02/17 08:08:25;;;;;;;819.03;453.77;;;;;;;;;;4949130;29;20079;-75
2022/02/17 08:10:51;;;;;;;820.90;465.85;;;;;;;;;;4944716;29;20082;-74
2022/02/17 08:13:19;;;;;;;823.22;469.50;;;;;;;;;;4951624;28;20062;-75
2022/02/17 08:15:45;;;;;;;823.78;474.33;;;;;;;;;;4950056;29;20070;-75
2022/02/17 08:18:11;;;;;;;822.17;471.83;;;;;;;;;;4950953;28;20042;-75
2022/02/17 08:20:37;;;;;;;823.63;473.15;;;;;;;;;;4946460;29;20679;-74
2022/02/17 08:23:03;;;;;;;824.78;467.50;;;;;;;;;;4948943;28;20039;-75
2022/02/17 08:25:29;;;;;;;821.17;468.55;;;;;;;;;;4948813;29;20037;-74
2022/02/17 08:27:55;;;;;;;820.13;464.95;;;;;;;;;;4950437;28;20463;-75
2022/02/17 08:30:21;;;;;;;821.70;473.35;;;;;;;;;;4948573;29;20039;-75
2022/02/17 08:32:48;;;;;;;820.90;468.42;;;;;;;;;;4950725;28;20031;-75
2022/02/17 08:35:15;;;;;;;821.95;473.05;;;;;;;;;;4947469;28;20111;-75
2022/02/17 08:37:42;;;;;;;822.53;473.40;;;;;;;;;;4963609;28;20079;-75
2022/02/17 08:40:09;;;;;;;823.72;473.85;;;;;;;;;;4948533;28;20703;-75
2022/02/17 08:42:35;;;;;;;818.90;462.70;;;;;;;;;;4950595;28;20090;-75
2022/02/17 08:45:02;;;;;;;822.42;475.70;;;;;;;;;;4951081;28;20035;-75
2022/02/17 08:47:28;;;;;;;821.33;471.35;;;;;;;;;;4946662;28;20028;-75
2022/02/17 08:49:54;;;;;;;822.55;469.52;;;;;;;;;;4949384;29;20579;-75
2022/02/17 08:52:21;;;;;;;821.70;473.50;;;;;;;;;;4951157;28;20031;-75
2022/02/17 08:54:47;;;;;;;816.83;459.55;;;;;;;;;;4948472;28;20063;-75
2022/02/17 08:57:22;;;;;;;821.55;465.23;;;;;;;;;;4946348;29;20108;-75
2022/02/17 08:59:48;;;;;;;818.83;460.75;;;;;;;;;;4963049;28;20123;-75
2022/02/17 09:02:14;;;;;;;821.47;467.13;;;;;;;;;;4944780;29;20358;-75
2022/02/17 09:04:40;;;;;;;819.03;461.15;;;;;;;;;;4951025;28;20054;-75
2022/02/17 09:07:06;;;;;;;821.17;472.73;;;;;;;;;;4950746;28;20038;-74
2022/02/17 09:09:32;;;;;;;824.33;477.58;;;;;;;;;;4948411;28;20080;-75
2022/02/17 09:11:58;;;;;;;825.53;484.00;;;;;;;;;;4949946;28;20027;-75
2022/02/17 09:14:24;;;;;;;824.42;483.10;;;;;;;;;;4948975;29;20097;-75
2022/02/17 09:16:52;;;;;;;823.83;484.42;;;;;;;;;;4949764;28;20027;-75
2022/02/17 09:19:18;;;;;;;824.75;481.63;;;;;;;;;;4947092;28;20023;-75
2022/02/17 09:21:44;;;;;;;834.08;486.23;;;;;;;;;;4949682;28;20039;-75
2022/02/17 09:24:10;;;;;;;825.55;480.00;;;;;;;;;;4944044;29;20036;-75
2022/02/17 09:26:36;;;;;;;821.45;473.88;;;;;;;;;;4938547;29;20184;-74
2022/02/17 09:29:03;;;;;;;822.33;477.02;;;;;;;;;;4950631;28;20043;-74
2022/02/17 09:31:29;;;;;;;825.20;489.85;;;;;;;;;;4946253;29;20046;-74
2022/02/17 09:33:55;;;;;;;831.67;499.30;;;;;;;;;;4947843;28;20925;-75
2022/02/17 09:36:22;;;;;;;836.42;513.13;;;;;;;;;;4943819;28;20047;-75
2022/02/17 09:38:48;;;;;;;828.08;498.77;;;;;;;;;;4949556;28;20478;-74
2022/02/17 09:41:16;;;;;;;831.53;513.28;;;;;;;;;;4946430;28;20506;-75
2022/02/17 09:43:43;;;;;;;827.95;498.95;;;;;;;;;;4947541;28;20035;-75
2022/02/17 09:46:12;;;;;;;827.03;488.35;;;;;;;;;;4950410;28;20063;-75
2022/02/17 09:48:39;;;;;;;831.78;505.08;;;;;;;;;;4942927;28;20035;-72
2022/02/17 09:51:05;;;;;;;834.03;516.15;;;;;;;;;;4943851;29;20180;-72
2022/02/17 09:53:31;;;;;;;835.05;525.00;;;;;;;;;;4943582;29;20853;-72
2022/02/17 09:55:57;;;;;;;835.17;521.35;;;;;;;;;;4944499;29;20035;-72
2022/02/17 09:58:23;;;;;;;833.00;519.55;;;;;;;;;;4946651;28;20502;-72
2022/02/17 10:00:49;;;;;;;833.03;514.33;;;;;;;;;;4946051;28;20464;-72
2022/02/17 10:03:22;;;;;;;836.55;529.15;;;;;;;;;;4945002;28;20077;-72
2022/02/17 10:06:07;;;;;;;835.22;525.90;;;;;;;;;;4942514;29;20036;-73
2022/02/17 10:08:35;;;;;;;832.55;516.35;;;;;;;;;;4946923;28;20105;-72
2022/02/17 10:11:01;;;;;;;836.47;530.05;;;;;;;;;;4948080;28;20054;-72
2022/02/17 10:13:28;;;;;;;843.88;556.05;;;;;;;;;;4957250;28;20039;-73
2022/02/17 10:15:57;;;;;;;848.55;575.33;;;;;;;;;;4946596;28;20073;-73
2022/02/17 10:18:27;;;;;;;851.03;588.83;;;;;;;;;;4946074;28;20115;-73
2022/02/17 10:21:12;;;;;;;851.90;591.25;;;;;;;;;;4938022;29;20662;-73
2022/02/17 10:23:45;;;;;;;846.88;571.38;;;;;;;;;;4939679;28;20046;-73
2022/02/17 10:26:14;;;;;;;840.90;556.63;;;;;;;;;;4944461;29;20031;-73
2022/02/17 10:28:45;;;;;;;844.30;562.28;;;;;;;;;;4939687;28;20062;-76
2022/02/17 10:31:11;;;;;;;;;;;;;;;;;;4951874;28;20041;-72
2022/02/17 10:33:41;;;;;;;832.03;523.75;;;;;;;;;;4947489;28;19915;-73
2022/02/17 10:36:08;;;;;;;833.40;525.88;;;;;;;;;;4942420;28;20065;-76
2022/02/17 10:38:34;;;;;;;841.85;550.80;;;;;;;;;;4947884;28;20141;-73
2022/02/17 10:41:00;;;;;;;839.05;538.28;;;;;;;;;;4944537;28;20491;-73
2022/02/17 10:43:31;;;;;;;837.10;538.00;;;;;;;;;;4944967;28;20089;-74
2022/02/17 10:46:04;;;;;;;843.63;544.25;;;;;;;;;;4944901;29;20122;-73
2022/02/17 10:48:30;;;;;;;843.13;556.10;;;;;;;;;;4945708;29;20479;-73
2022/02/17 10:51:05;;;;;;;840.13;547.25;;;;;;;;;;4947574;28;20149;-73
2022/02/17 10:53:42;;;;;;;839.25;545.88;;;;;;;;;;4948985;28;20794;-73
2022/02/17 10:56:15;;;;;;;835.47;537.72;;;;;;;;;;4949893;29;20031;-73
2022/02/17 10:58:46;;;;;;;836.25;539.67;;;;;;;;;;4944401;29;20035;-74
2022/02/17 11:01:13;;;;;;;839.42;548.88;;;;;;;;;;4948269;28;20085;-73
2022/02/17 11:03:40;;;;;;;850.58;569.80;;;;;;;;;;4948793;28;20031;-73
2022/02/17 11:06:06;;;;;;;844.50;566.55;;;;;;;;;;4943848;29;20027;-74
2022/02/17 11:08:32;;;;;;;855.95;583.88;;;;;;;;;;4972162;28;20039;-74
2022/02/17 11:10:59;;;;;;;848.95;581.83;;;;;;;;;;4948923;28;20031;-74
2022/02/17 11:13:26;;;;;;;845.33;568.83;;;;;;;;;;4948415;29;20035;-73
2022/02/17 11:15:53;;;;;;;855.13;570.80;;;;;;;;;;4948059;28;20027;-74
2022/02/17 11:18:20;;;;;;;846.38;573.08;;;;;;;;;;4948051;28;20031;-73
2022/02/17 11:20:47;;;;;;;846.42;570.28;;;;;;;;;;4948931;28;20059;-73
2022/02/17 11:23:18;;;;;;;841.72;557.72;;;;;;;;;;4947845;28;20031;-73
2022/02/17 11:25:44;;;;;;;844.22;567.10;;;;;;;;;;4947918;28;20027;-73
2022/02/17 11:28:11;;;;;;;846.10;570.15;;;;;;;;;;4947885;29;20035;-73
2022/02/17 11:30:40;;;;;;;847.50;578.10;;;;;;;;;;4941379;28;20747;-73
2022/02/17 11:33:21;;;;;;;845.30;569.58;;;;;;;;;;4947004;28;20035;-73
2022/02/17 11:35:48;;;;;;;845.65;565.13;;;;;;;;;;4946830;28;20111;-73
2022/02/17 11:38:32;;;;;;;842.33;559.15;;;;;;;;;;4947522;28;20110;-73
2022/02/17 11:41:00;;;;;;;838.40;547.97;;;;;;;;;;4948339;28;20498;-73
2022/02/17 11:43:30;;;;;;;839.53;541.65;;;;;;;;;;4947193;28;20027;-74
2022/02/17 11:45:56;;;;;;;839.90;545.05;;;;;;;;;;4947909;29;20032;-74
2022/02/17 11:48:33;;;;;;;844.72;559.58;;;;;;;;;;4951460;28;20039;-74
2022/02/17 11:51:18;;;;;;;837.15;541.03;;;;;;;;;;4950655;28;20023;-74
2022/02/17 11:53:45;;;;;;;837.75;538.95;;;;;;;;;;4947861;28;20134;-74
2022/02/17 11:56:17;;;;;;;836.88;538.17;;;;;;;;;;4962204;28;20032;-74
2022/02/17 11:58:55;;;;;;;837.75;537.75;;;;;;;;;;4945955;29;20096;-74
2022/02/17 12:01:33;;;;;;;836.78;530.42;;;;;;;;;;4945878;28;20582;-74
2022/02/17 12:04:09;;;;;;;837.25;537.35;;;;;;;;;;4943579;28;20032;-74
2022/02/17 12:06:46;;;;;;;837.05;532.15;;;;;;;;;;4947506;29;20046;-74
2022/02/17 12:09:31;;;;;;;831.22;520.05;;;;;;;;;;4945949;28;20034;-74
2022/02/17 12:11:57;;;;;;;834.13;520.33;;;;;;;;;;4946184;29;20036;-74
2022/02/17 12:14:23;;;;;;;834.70;527.53;;;;;;;;;;4946125;28;20031;-74
2022/02/17 12:17:11;;;;;;;837.25;534.65;;;;;;;;;;4944977;29;20035;-74
2022/02/17 12:19:37;;;;;;;835.60;530.40;;;;;;;;;;4962292;28;20149;-74
2022/02/17 12:22:13;;;;;;;833.17;524.28;;;;;;;;;;4949391;28;20137;-74
2022/02/17 12:24:43;;;;;;;831.90;524.90;;;;;;;;;;4947995;28;20039;-74
2022/02/17 12:27:13;;;;;;;830.17;513.85;;;;;;;;;;4945864;28;20106;-74
2022/02/17 12:29:45;;;;;;;836.10;512.80;;;;;;;;;;4945331;28;20042;-74
2022/02/17 12:32:19;;;;;;;831.58;512.70;;;;;;;;;;4949291;28;20046;-76
2022/02/17 12:34:45;;;;;;;842.05;513.55;;;;;;;;;;4950554;28;20027;-74
2022/02/17 12:37:18;;;;;;;833.10;518.63;;;;;;;;;;4950181;28;20078;-73
2022/02/17 12:39:44;;;;;;;830.38;505.40;;;;;;;;;;4947541;29;20031;-76
2022/02/17 12:42:10;;;;;;;830.80;511.08;;;;;;;;;;4947192;29;20035;-76
2022/02/17 12:44:39;;;;;;;827.75;499.98;;;;;;;;;;4950822;28;20486;-76
2022/02/17 12:47:08;;;;;;;829.22;506.95;;;;;;;;;;4950094;28;20031;-75
2022/02/17 12:49:35;;;;;;;826.63;491.67;;;;;;;;;;4950613;28;20042;-75
2022/02/17 12:52:11;;;;;;;831.22;509.00;;;;;;;;;;4948679;29;20352;-75
2022/02/17 12:54:38;;;;;;;829.40;501.77;;;;;;;;;;4949869;28;20402;-75
2022/02/17 12:57:09;;;;;;;832.90;514.97;;;;;;;;;;4949198;29;20059;-75
2022/02/17 12:59:35;;;;;;;830.20;503.02;;;;;;;;;;4950625;28;20031;-75
2022/02/17 13:02:01;;;;;;;830.25;509.40;;;;;;;;;;4949528;29;20065;-75
2022/02/17 13:04:28;;;;;;;825.92;496.08;;;;;;;;;;4950744;28;20439;-75
2022/02/17 13:06:59;;;;;;;831.58;509.38;;;;;;;;;;4957103;28;20038;-75
2022/02/17 13:09:27;;;;;;;830.25;501.63;;;;;;;;;;4939311;29;20031;-75
2022/02/17 13:11:54;;;;;;;825.90;492.13;;;;;;;;;;4947496;29;20081;-74
2022/02/17 13:14:22;;;;;;;825.55;493.95;;;;;;;;;;4949384;28;20038;-74
2022/02/17 13:16:50;;;;;;;826.45;497.63;;;;;;;;;;4951281;28;20023;-77
2022/02/17 13:19:38;;;;;;;831.15;503.95;;;;;;;;;;4946601;28;20058;-75
2022/02/17 13:22:05;;;;;;;828.90;501.88;;;;;;;;;;4948706;29;20411;-74
2022/02/17 13:24:31;;;;;;;824.95;494.02;;;;;;;;;;4947154;28;20035;-74
2022/02/17 13:27:26;;;;;;;833.83;504.02;;;;;;;;;;4950058;28;20042;-74
2022/02/17 13:30:03;;;;;;;835.17;492.67;;;;;;;;;;4940879;29;20081;-75
2022/02/17 13:32:30;;;;;;;824.38;487.98;;;;;;;;;;4967016;28;20390;-74
2022/02/17 13:35:00;;;;;;;827.72;495.75;;;;;;;;;;4949067;29;20108;-74
2022/02/17 13:37:36;;;;;;;826.83;489.77;;;;;;;;;;4949473;28;20048;-74
2022/02/17 13:40:02;;;;;;;824.10;486.52;;;;;;;;;;4956560;28;20032;-75
2022/02/17 13:42:28;;;;;;;828.13;497.08;;;;;;;;;;4949235;28;20063;-77
2022/02/17 13:44:54;;;;;;;828.72;498.05;;;;;;;;;;4949833;28;20090;-77
2022/02/17 13:47:34;;;;;;;827.65;495.77;;;;;;;;;;4950154;28;20035;-77
2022/02/17 13:50:02;;;;;;;827.43;492.30;;;;;;;;;;4950187;28;20092;-78
2022/02/17 13:52:30;;;;;;;828.33;500.83;;;;;;;;;;4949343;28;20102;-78
2022/02/17 13:54:57;;;;;;;826.92;494.95;;;;;;;;;;4946964;29;20019;-77
2022/02/17 13:57:24;;;;;;;829.42;504.10;;;;;;;;;;4949837;28;20074;-78
2022/02/17 13:59:50;;;;;;;828.75;504.08;;;;;;;;;;4944300;28;20367;-77